Allouez, Wisconsin
Current Conditions -  °F | °C
As of 10:53 AM on Tuesday 21 Oct 2014 (Local Time) from KGRB Reporting Station
Overcast Overcast  
Wind Chill:   Ceiling: 2900
Heat Index:   Visibility: 10mi
Dew Point:   Wind: 14mph
Humidity: 68%   Direction: 10°N
Pressure: 30.24"   Gusts: NA
Location:  44.48°N, 88.02°W
Report Text: KGRB 211553Z 01012KT 10SM OVC029 08/02 A3024 RMK AO2 SLP244 T00780022
Loading
Personal Weather Stations






























Interactive Weather Map
Tropical Storm Tracking
New forecast layout! Learn more

10-Day Weather Forecast

Advertisements
Track Severe Weather on mobile